createdAt,value
2022-12-03T00:01:57.972Z,3.20
2022-12-03T00:04:24.950Z,3.20
2022-12-03T00:06:51.937Z,3.20
2022-12-03T00:09:18.935Z,3.10
2022-12-03T00:11:45.979Z,3.20
2022-12-03T00:14:13.005Z,3.20
2022-12-03T00:16:39.960Z,3.20
2022-12-03T00:19:07.620Z,3.10
2022-12-03T00:21:34.969Z,3.10
2022-12-03T00:24:02.009Z,3.20
2022-12-03T00:26:28.935Z,3.10
2022-12-03T00:28:56.188Z,3.10
2022-12-03T00:31:24.043Z,3.20
2022-12-03T00:33:52.204Z,3.10
2022-12-03T00:36:19.431Z,3.00
2022-12-03T00:38:46.482Z,3.10
2022-12-03T00:41:13.491Z,3.00
2022-12-03T00:43:40.444Z,3.00
2022-12-03T00:46:07.510Z,3.10
2022-12-03T00:48:34.642Z,3.10
2022-12-03T00:51:01.589Z,3.00
2022-12-03T00:53:28.673Z,3.10
2022-12-03T00:55:55.658Z,3.10
2022-12-03T00:58:23.993Z,3.10
2022-12-03T01:00:50.996Z,3.10
2022-12-03T01:03:17.944Z,3.20
2022-12-03T01:05:44.896Z,3.20
2022-12-03T01:08:11.919Z,3.20
2022-12-03T01:10:39.752Z,3.20
2022-12-03T01:13:06.708Z,3.30
2022-12-03T01:15:33.723Z,3.30
2022-12-03T01:18:00.780Z,3.20
2022-12-03T01:20:28.153Z,3.20
2022-12-03T01:22:55.093Z,3.20
2022-12-03T01:25:22.211Z,3.30
2022-12-03T01:27:50.916Z,3.30
2022-12-03T01:30:17.923Z,3.30
2022-12-03T01:32:44.899Z,3.30
2022-12-03T01:35:11.873Z,3.50
2022-12-03T01:37:38.862Z,3.20
2022-12-03T01:40:08.645Z,3.20
2022-12-03T01:42:40.139Z,3.30
2022-12-03T01:45:11.944Z,3.40
2022-12-03T01:47:39.136Z,3.40
2022-12-03T01:50:18.107Z,3.30
2022-12-03T01:52:45.747Z,3.40
2022-12-03T01:55:19.951Z,3.40
2022-12-03T01:57:51.605Z,3.30
2022-12-03T02:00:27.328Z,3.30
2022-12-03T02:02:59.412Z,3.30
2022-12-03T02:05:30.025Z,3.30
2022-12-03T02:07:58.350Z,3.30
2022-12-03T02:10:29.863Z,3.30
2022-12-03T02:13:02.072Z,3.40
2022-12-03T02:15:29.354Z,3.40
2022-12-03T02:17:57.095Z,3.40
2022-12-03T02:20:24.104Z,3.50
2022-12-03T02:23:22.431Z,3.60
2022-12-03T02:25:49.588Z,3.40
2022-12-03T02:28:16.596Z,3.40
2022-12-03T02:30:43.590Z,3.40
2022-12-03T02:33:10.752Z,3.40
2022-12-03T02:35:38.344Z,3.40
2022-12-03T02:38:23.367Z,3.40
2022-12-03T02:40:54.114Z,3.40
2022-12-03T02:43:22.601Z,3.30
2022-12-03T02:45:55.854Z,3.30
2022-12-03T02:48:29.995Z,3.50
2022-12-03T02:51:03.500Z,3.60
2022-12-03T02:53:42.351Z,3.70
2022-12-03T02:56:12.399Z,3.60
2022-12-03T02:58:41.657Z,3.50
2022-12-03T03:01:09.404Z,3.40
2022-12-03T03:06:06.935Z,3.40
2022-12-03T03:08:35.571Z,3.50
2022-12-03T03:11:03.361Z,3.40
2022-12-03T03:13:32.715Z,3.40
2022-12-03T03:15:59.969Z,3.40
2022-12-03T03:18:26.969Z,3.50
2022-12-03T03:20:53.978Z,3.20
2022-12-03T03:23:23.933Z,3.50
2022-12-03T03:26:03.302Z,3.30
2022-12-03T03:28:31.438Z,3.20
2022-12-03T03:31:00.822Z,3.30
2022-12-03T03:33:28.239Z,3.40
2022-12-03T03:35:55.407Z,3.40
2022-12-03T03:38:23.977Z,3.40
2022-12-03T03:40:52.787Z,3.40
2022-12-03T03:43:24.001Z,3.50
2022-12-03T03:45:52.594Z,3.40
2022-12-03T03:48:21.093Z,3.40
2022-12-03T03:50:49.566Z,3.30
2022-12-03T03:53:17.784Z,3.30
2022-12-03T03:55:45.076Z,3.30
2022-12-03T03:58:12.127Z,3.20
2022-12-03T04:00:39.306Z,3.30
2022-12-03T04:03:06.593Z,3.40
2022-12-03T04:05:34.072Z,3.50
2022-12-03T04:08:01.130Z,3.60
2022-12-03T04:10:46.390Z,3.50
2022-12-03T04:13:13.342Z,3.50
2022-12-03T04:15:40.361Z,3.60
2022-12-03T04:18:26.089Z,3.70
2022-12-03T04:21:13.008Z,3.70
2022-12-03T04:23:40.162Z,3.70
2022-12-03T04:26:25.463Z,3.70
2022-12-03T04:28:52.525Z,3.70
2022-12-03T04:31:38.201Z,3.70
2022-12-03T04:34:24.222Z,3.80
2022-12-03T04:36:51.242Z,3.80
2022-12-03T04:39:18.200Z,3.80
2022-12-03T04:41:45.211Z,3.80
2022-12-03T04:44:30.797Z,3.80
2022-12-03T04:46:57.779Z,3.80
2022-12-03T04:49:24.783Z,3.80
2022-12-03T04:51:51.772Z,3.80
2022-12-03T04:56:46.160Z,3.90
2022-12-03T04:59:16.440Z,3.90
2022-12-03T05:01:44.369Z,3.80
2022-12-03T05:06:39.728Z,4.00
2022-12-03T05:09:06.835Z,4.00
2022-12-03T05:11:34.116Z,4.10
2022-12-03T05:14:01.103Z,4.00
2022-12-03T05:16:29.373Z,4.10
2022-12-03T05:18:56.789Z,4.10
2022-12-03T05:21:24.237Z,4.00
2022-12-03T05:23:51.447Z,4.00
2022-12-03T05:26:18.592Z,4.00
2022-12-03T05:28:45.550Z,3.90
2022-12-03T05:31:12.844Z,3.80
2022-12-03T05:33:44.249Z,3.90
2022-12-03T05:36:11.663Z,3.90
2022-12-03T05:38:38.823Z,3.90
2022-12-03T05:41:25.937Z,4.00
2022-12-03T05:43:52.868Z,4.00
2022-12-03T05:46:19.935Z,3.90
2022-12-03T05:48:47.076Z,4.00
2022-12-03T05:51:14.021Z,4.10
2022-12-03T05:53:41.001Z,4.10
2022-12-03T05:56:08.056Z,4.10
2022-12-03T05:58:35.124Z,4.10
2022-12-03T06:01:02.327Z,4.20
2022-12-03T06:03:29.454Z,4.30
2022-12-03T06:05:56.470Z,4.30
2022-12-03T06:08:23.414Z,4.20
2022-12-03T06:10:50.951Z,4.20
2022-12-03T06:13:17.914Z,4.00
2022-12-03T06:15:44.926Z,4.00
2022-12-03T06:18:12.079Z,3.80
2022-12-03T06:20:39.058Z,3.60
2022-12-03T06:23:05.984Z,3.50
2022-12-03T06:25:32.979Z,3.60
2022-12-03T06:28:00.034Z,3.50
2022-12-03T06:30:27.039Z,3.40
2022-12-03T06:32:54.110Z,3.40
2022-12-03T06:35:21.051Z,3.40
2022-12-03T06:37:49.258Z,3.50
2022-12-03T06:40:16.837Z,3.40
2022-12-03T06:42:44.143Z,3.40
2022-12-03T06:45:12.169Z,3.40
2022-12-03T06:47:39.107Z,3.30
2022-12-03T06:50:08.506Z,3.30
2022-12-03T06:52:36.109Z,3.40
2022-12-03T06:55:03.570Z,3.40
2022-12-03T06:57:30.921Z,3.30
2022-12-03T06:59:57.914Z,3.40
2022-12-03T07:02:25.014Z,3.40
2022-12-03T07:04:52.004Z,3.40
2022-12-03T07:07:18.929Z,3.50
2022-12-03T07:09:45.901Z,3.50
2022-12-03T07:12:12.790Z,3.50
2022-12-03T07:14:39.798Z,3.50
2022-12-03T07:17:07.463Z,3.50
2022-12-03T07:19:34.450Z,3.40
2022-12-03T07:22:01.528Z,3.50
2022-12-03T07:24:28.687Z,3.40
2022-12-03T07:26:55.956Z,3.40
2022-12-03T07:29:22.886Z,3.50
2022-12-03T07:31:49.935Z,3.40
2022-12-03T07:34:16.884Z,3.40
2022-12-03T07:36:43.862Z,3.50
2022-12-03T07:39:10.879Z,3.40
2022-12-03T07:41:37.799Z,3.50
2022-12-03T07:44:09.264Z,3.50
2022-12-03T07:46:41.914Z,3.50
2022-12-03T07:49:09.028Z,3.50
2022-12-03T07:51:36.005Z,3.50
2022-12-03T07:54:03.104Z,3.40
2022-12-03T07:56:30.292Z,3.40
2022-12-03T07:58:57.201Z,3.40
2022-12-03T08:01:24.145Z,3.40
2022-12-03T08:03:51.161Z,3.40
2022-12-03T08:06:18.243Z,3.30
2022-12-03T08:08:45.308Z,3.30
2022-12-03T08:11:15.740Z,3.30
2022-12-03T08:13:42.777Z,3.30
2022-12-03T08:16:20.769Z,3.30
2022-12-03T08:18:49.547Z,3.30
2022-12-03T08:21:20.705Z,3.30
2022-12-03T08:23:48.077Z,3.40
2022-12-03T08:26:24.682Z,3.30
2022-12-03T08:28:53.361Z,3.30
2022-12-03T08:31:32.449Z,3.30
2022-12-03T08:34:17.805Z,3.30
2022-12-03T08:36:46.390Z,3.30
2022-12-03T08:39:37.854Z,3.30
2022-12-03T08:42:23.098Z,3.30
2022-12-03T08:44:50.036Z,3.30
2022-12-03T08:47:23.794Z,3.20
2022-12-03T08:50:01.281Z,3.30
2022-12-03T08:52:33.981Z,3.30
2022-12-03T08:55:29.384Z,3.30
2022-12-03T08:57:56.455Z,3.40
2022-12-03T09:00:24.707Z,3.30
2022-12-03T09:02:54.965Z,3.40
2022-12-03T09:05:27.899Z,3.40
2022-12-03T09:07:55.386Z,3.30
2022-12-03T09:10:22.372Z,3.30
2022-12-03T09:12:49.486Z,3.30
2022-12-03T09:15:16.976Z,3.40
2022-12-03T09:17:43.909Z,3.30
2022-12-03T09:20:11.410Z,3.20
2022-12-03T09:22:38.352Z,3.30
2022-12-03T09:25:06.146Z,3.20
2022-12-03T09:27:33.133Z,3.30
2022-12-03T09:30:00.149Z,3.30
2022-12-03T09:32:27.210Z,3.00
2022-12-03T09:34:54.410Z,3.00
2022-12-03T09:37:22.234Z,3.00
2022-12-03T09:39:49.273Z,3.00
2022-12-03T09:42:16.518Z,3.10
2022-12-03T09:44:43.974Z,2.90
2022-12-03T09:47:11.252Z,2.90
2022-12-03T09:49:40.899Z,2.80
2022-12-03T09:52:08.258Z,2.90
2022-12-03T09:54:35.489Z,2.90
2022-12-03T09:57:04.534Z,2.90
2022-12-03T09:59:34.712Z,3.10
2022-12-03T10:02:02.669Z,3.20
2022-12-03T10:04:30.521Z,3.20
2022-12-03T10:06:58.987Z,3.10
2022-12-03T10:09:28.914Z,3.20
2022-12-03T10:11:57.679Z,3.10
2022-12-03T10:14:24.995Z,3.00
2022-12-03T10:16:52.169Z,3.00
2022-12-03T10:19:25.046Z,3.00
2022-12-03T10:21:52.355Z,2.90
2022-12-03T10:24:31.879Z,2.90
2022-12-03T10:27:05.883Z,2.80
2022-12-03T10:29:35.709Z,2.80
2022-12-03T10:32:11.734Z,2.90
2022-12-03T10:34:41.975Z,2.80
2022-12-03T10:37:26.783Z,2.70
2022-12-03T10:39:58.790Z,2.70
2022-12-03T10:42:35.321Z,2.50
2022-12-03T10:45:22.491Z,2.60
2022-12-03T10:48:25.503Z,2.80
2022-12-03T10:51:05.202Z,2.70
2022-12-03T10:53:36.691Z,2.70
2022-12-03T10:56:07.830Z,2.80
2022-12-03T10:58:37.741Z,2.70
2022-12-03T11:01:17.494Z,2.80
2022-12-03T11:03:45.097Z,2.70
2022-12-03T11:06:18.757Z,2.80
2022-12-03T11:08:57.147Z,2.90
2022-12-03T11:11:27.360Z,3.00
2022-12-03T11:14:02.990Z,2.90
2022-12-03T11:16:41.826Z,2.90
2022-12-03T11:19:43.000Z,2.80
2022-12-03T11:22:10.159Z,2.80
2022-12-03T11:24:39.840Z,2.80
2022-12-03T11:27:11.657Z,2.90
2022-12-03T11:30:02.200Z,2.90
2022-12-03T11:32:38.364Z,2.90
2022-12-03T11:35:28.239Z,2.80
2022-12-03T11:37:55.220Z,2.80
2022-12-03T11:40:22.024Z,2.80
2022-12-03T11:42:49.099Z,2.80
2022-12-03T11:45:35.711Z,2.80
2022-12-03T11:48:11.641Z,2.80
2022-12-03T11:50:50.801Z,2.80
2022-12-03T11:53:22.116Z,2.70
2022-12-03T11:56:06.229Z,2.80
2022-12-03T11:58:34.399Z,2.90
2022-12-03T12:01:04.730Z,2.90
2022-12-03T12:03:37.184Z,2.90
2022-12-03T12:06:05.638Z,2.80
2022-12-03T12:08:35.295Z,3.00
2022-12-03T12:11:03.951Z,3.00
2022-12-03T12:13:54.581Z,2.90
2022-12-03T12:16:51.635Z,2.80
2022-12-03T12:19:35.112Z,2.80
2022-12-03T12:22:24.845Z,2.70
2022-12-03T12:24:54.295Z,2.80
2022-12-03T12:27:30.657Z,2.90
2022-12-03T12:30:26.732Z,2.90
2022-12-03T12:33:23.130Z,2.90
2022-12-03T12:35:50.932Z,2.70
2022-12-03T12:38:20.995Z,2.70
2022-12-03T12:40:50.499Z,2.80
2022-12-03T12:43:30.808Z,2.80
2022-12-03T12:46:18.676Z,2.90
2022-12-03T12:48:48.731Z,2.90
2022-12-03T12:51:20.572Z,2.80
2022-12-03T12:53:47.866Z,2.90
2022-12-03T12:56:43.719Z,2.80
2022-12-03T12:59:10.630Z,2.80
2022-12-03T13:01:39.313Z,2.80
2022-12-03T13:04:20.552Z,2.80
2022-12-03T13:06:50.296Z,2.70
2022-12-03T13:09:21.242Z,2.70
2022-12-03T13:11:59.320Z,2.60
2022-12-03T13:14:37.269Z,2.60
2022-12-03T13:17:16.896Z,2.60
2022-12-03T13:19:49.359Z,2.60
2022-12-03T13:22:22.188Z,2.50
2022-12-03T13:24:51.747Z,2.40
2022-12-03T13:27:19.498Z,2.40
2022-12-03T13:30:13.157Z,2.50
2022-12-03T13:32:42.820Z,2.50
2022-12-03T13:35:27.211Z,2.40
2022-12-03T13:37:54.243Z,2.40
2022-12-03T13:40:27.229Z,2.40
2022-12-03T13:42:55.087Z,2.50
2022-12-03T13:45:24.687Z,2.50
2022-12-03T13:47:58.977Z,2.40
2022-12-03T13:50:44.419Z,2.40
2022-12-03T13:53:11.330Z,2.40
2022-12-03T13:55:46.833Z,2.40
2022-12-03T13:58:13.788Z,2.50
2022-12-03T14:00:40.830Z,2.40
2022-12-03T14:03:07.792Z,2.40
2022-12-03T14:08:02.746Z,2.50
2022-12-03T14:10:30.376Z,2.60
2022-12-03T14:12:58.062Z,2.60
2022-12-03T14:15:26.384Z,2.60
2022-12-03T14:17:53.808Z,2.60
2022-12-03T14:20:20.929Z,2.50
2022-12-03T14:22:47.981Z,2.40
2022-12-03T14:25:15.362Z,2.50
2022-12-03T14:27:42.343Z,2.50
2022-12-03T14:30:10.069Z,2.40
2022-12-03T14:32:37.191Z,2.20
2022-12-03T14:35:09.694Z,2.20
2022-12-03T14:37:37.383Z,2.10
2022-12-03T14:40:07.059Z,2.10
2022-12-03T14:42:34.064Z,2.00
2022-12-03T14:45:01.406Z,2.10
2022-12-03T14:47:28.304Z,2.10
2022-12-03T14:49:55.371Z,2.10
2022-12-03T14:52:22.629Z,2.00
2022-12-03T14:54:49.692Z,2.10
2022-12-03T14:57:16.735Z,2.00
2022-12-03T15:14:31.486Z,1.80
2022-12-03T15:16:58.673Z,1.90
2022-12-03T15:19:26.581Z,1.90
2022-12-03T15:24:21.037Z,2.20
2022-12-03T15:26:49.279Z,2.10
2022-12-03T15:29:16.635Z,2.10
2022-12-03T15:31:44.576Z,2.10
2022-12-03T15:36:41.936Z,2.00
2022-12-03T15:39:08.833Z,2.10
2022-12-03T15:41:36.376Z,2.10
2022-12-03T15:44:03.328Z,2.00
2022-12-03T15:46:31.506Z,2.10
2022-12-03T15:51:26.213Z,2.10
2022-12-03T15:53:53.285Z,2.10
2022-12-03T15:56:20.403Z,2.00
2022-12-03T15:58:47.373Z,2.00
2022-12-03T16:01:14.811Z,2.00
2022-12-03T16:03:41.912Z,1.90
2022-12-03T16:08:36.533Z,1.80
2022-12-03T16:11:05.620Z,1.80
2022-12-03T16:13:32.577Z,1.90
2022-12-03T16:15:59.593Z,1.90
2022-12-03T16:18:26.628Z,1.90
2022-12-03T16:20:53.611Z,1.70
2022-12-03T16:23:20.672Z,1.70
2022-12-03T16:25:47.656Z,1.90
2022-12-03T16:30:42.367Z,1.80
2022-12-03T16:33:09.323Z,1.60
2022-12-03T16:38:05.492Z,1.70
2022-12-03T16:40:32.438Z,1.70
2022-12-03T16:42:59.380Z,1.70
2022-12-03T16:45:50.838Z,1.70
2022-12-03T16:48:18.930Z,1.70
2022-12-03T16:50:45.975Z,1.70
2022-12-03T17:07:58.351Z,2.00
2022-12-03T17:10:25.414Z,2.00
2022-12-03T17:18:06.315Z,1.80
2022-12-03T17:27:56.720Z,1.60
2022-12-03T17:30:23.659Z,1.80
2022-12-03T17:32:50.710Z,1.60
2022-12-03T17:35:18.405Z,1.60
2022-12-03T17:37:45.950Z,1.70
2022-12-03T17:40:15.223Z,1.70
2022-12-03T17:45:10.411Z,1.70
2022-12-03T17:50:06.282Z,1.80
2022-12-03T17:52:33.265Z,1.70
2022-12-03T17:55:24.985Z,1.70
2022-12-03T17:57:47.286Z,1.70
2022-12-03T18:00:14.578Z,1.80
2022-12-03T18:02:42.119Z,1.80
2022-12-03T18:05:10.216Z,1.90
2022-12-03T18:07:37.237Z,1.80
2022-12-03T18:10:05.063Z,1.90
2022-12-03T18:12:32.160Z,2.00
2022-12-03T18:14:59.155Z,2.00
2022-12-03T18:17:26.162Z,2.10
2022-12-03T18:19:53.443Z,2.00
2022-12-03T18:22:20.718Z,2.10
2022-12-03T18:24:51.482Z,2.00
2022-12-03T18:27:21.339Z,1.80
2022-12-03T18:29:48.788Z,1.70
2022-12-03T18:32:28.436Z,1.60
2022-12-03T18:37:28.394Z,1.30
2022-12-03T18:39:56.522Z,1.40
2022-12-03T18:42:24.053Z,1.40
2022-12-03T18:44:53.689Z,1.40
2022-12-03T18:47:28.821Z,1.40
2022-12-03T18:49:56.561Z,1.40
2022-12-03T18:52:25.142Z,1.40
2022-12-03T18:54:52.606Z,1.40
2022-12-03T18:57:19.570Z,1.40
2022-12-03T18:59:46.612Z,1.50
2022-12-03T19:02:53.819Z,1.40
2022-12-03T19:05:07.463Z,1.60
2022-12-03T19:12:29.851Z,1.90
2022-12-03T19:14:56.839Z,1.50
2022-12-03T19:17:23.884Z,1.50
2022-12-03T19:19:50.814Z,1.50
2022-12-03T19:22:17.792Z,1.30
2022-12-03T19:24:44.777Z,1.20
2022-12-03T19:27:11.975Z,1.30
2022-12-03T19:29:39.084Z,1.20
2022-12-03T20:06:40.065Z,1.40
2022-12-03T20:09:12.095Z,1.20
2022-12-03T20:11:41.096Z,1.00
2022-12-03T20:14:11.853Z,1.40
2022-12-03T20:16:39.013Z,1.50
2022-12-03T20:19:08.432Z,1.50
2022-12-03T20:21:37.725Z,1.50
2022-12-03T20:24:06.101Z,1.50
2022-12-03T20:26:33.584Z,1.60
2022-12-03T20:29:00.654Z,1.70
2022-12-03T20:31:30.841Z,1.70
2022-12-03T20:34:01.533Z,1.70
2022-12-03T20:36:31.015Z,1.70
2022-12-03T20:39:01.303Z,1.60
2022-12-03T20:41:28.841Z,1.70
2022-12-03T20:43:58.250Z,1.60
2022-12-03T20:46:29.298Z,1.50
2022-12-03T20:48:57.554Z,1.50
2022-12-03T20:51:29.842Z,1.50
2022-12-03T20:53:59.380Z,1.60
2022-12-03T20:56:31.343Z,1.60
2022-12-03T20:59:05.336Z,1.60
2022-12-03T21:01:32.872Z,1.60
2022-12-03T21:04:00.275Z,1.60
2022-12-03T21:06:30.079Z,1.60
2022-12-03T21:08:59.128Z,1.50
2022-12-03T21:11:29.847Z,1.60
2022-12-03T21:17:06.762Z,1.60
2022-12-03T21:19:21.000Z,1.60
2022-12-03T21:21:48.779Z,1.70
2022-12-03T21:24:15.883Z,1.60
2022-12-03T21:26:42.975Z,1.50
2022-12-03T21:29:10.194Z,1.50
2022-12-03T21:31:38.384Z,1.70
2022-12-03T21:34:05.692Z,1.70
2022-12-03T21:36:32.806Z,1.70
2022-12-03T21:38:59.979Z,1.70
2022-12-03T21:41:27.172Z,1.60
2022-12-03T21:43:54.320Z,1.60
2022-12-03T21:47:09.618Z,1.70
2022-12-03T21:49:08.630Z,1.60
2022-12-03T21:51:35.676Z,1.60
2022-12-03T21:56:31.845Z,1.60
2022-12-03T21:58:59.142Z,1.70
2022-12-03T22:01:26.272Z,1.70
2022-12-03T22:03:53.444Z,1.70
2022-12-03T22:06:20.845Z,1.80
2022-12-03T22:08:48.608Z,1.90
2022-12-03T22:11:23.184Z,1.90
2022-12-03T22:13:50.708Z,1.80
2022-12-03T22:16:21.020Z,2.20
2022-12-03T22:21:19.673Z,1.80
2022-12-03T22:23:47.326Z,1.70
2022-12-03T22:26:17.783Z,1.70
2022-12-03T22:28:47.018Z,1.70
2022-12-03T22:31:14.969Z,0.70
2022-12-03T22:33:43.522Z,1.80
2022-12-03T22:36:19.778Z,1.70
2022-12-03T22:38:47.720Z,1.70
2022-12-03T22:41:16.706Z,1.70
2022-12-03T22:43:44.998Z,1.70
2022-12-03T22:46:13.110Z,1.70
2022-12-03T22:48:42.719Z,1.80
2022-12-03T22:51:16.618Z,1.70
2022-12-03T22:53:43.768Z,1.70
2022-12-03T22:56:11.084Z,1.80
2022-12-03T22:58:39.527Z,1.70
2022-12-03T23:01:07.856Z,1.70
2022-12-03T23:03:35.220Z,1.80
2022-12-03T23:06:10.764Z,1.70
2022-12-03T23:08:37.826Z,1.70
2022-12-03T23:11:04.906Z,1.70
2022-12-03T23:13:31.973Z,1.70
2022-12-03T23:15:58.965Z,1.80
2022-12-03T23:18:25.882Z,1.80
2022-12-03T23:20:55.523Z,2.00
2022-12-03T23:23:26.257Z,2.00
2022-12-03T23:26:05.283Z,1.90
2022-12-03T23:28:35.093Z,2.00
2022-12-03T23:31:02.341Z,2.00
2022-12-03T23:33:32.958Z,1.80
2022-12-03T23:36:06.487Z,1.90
2022-12-03T23:38:33.531Z,2.00
2022-12-03T23:41:09.030Z,1.80
2022-12-03T23:43:36.075Z,1.80
2022-12-03T23:46:06.615Z,1.70
2022-12-03T23:48:34.325Z,1.70
2022-12-03T23:51:16.697Z,1.80
2022-12-03T23:53:44.809Z,1.80
2022-12-03T23:56:15.860Z,1.80
2022-12-03T23:58:43.547Z,1.80
